Time;durP1;ratioP1;P1;durP2;ratioP2;P2;SDS_P1;SDS_P2;PMS_P1;PMS_P2;Temp;Humidity;BMP_temperature;BMP_pressure;BME280_temperature;BME280_humidity;BME280_pressure;Samples;Min_cycle;Max_cycle;Signal;HPM_P1;HPM_P2
2022/03/15 00:02:39;;;;;;;83.03;26.50;;;0.00;1.00;;;;;;4354693;28;655772;-86
2022/03/15 00:05:26;;;;;;;94.70;29.73;;;0.00;1.00;;;;;;4335124;28;655198;-86
2022/03/15 00:08:14;;;;;;;102.80;30.43;;;-0.10;1.00;;;;;;4358884;28;654562;-86
2022/03/15 00:11:05;;;;;;;84.47;25.93;;;-0.10;1.00;;;;;;4335969;28;656562;-86
2022/03/15 00:13:54;;;;;;;98.23;29.90;;;-0.20;1.00;;;;;;4333344;28;657430;-86
2022/03/15 00:16:41;;;;;;;101.28;32.33;;;-0.20;1.00;;;;;;4332155;28;655481;-86
2022/03/15 00:19:29;;;;;;;75.77;26.30;;;-0.20;1.00;;;;;;4355495;28;657420;-86
2022/03/15 00:22:17;;;;;;;78.27;26.23;;;-0.20;1.00;;;;;;4331478;28;656387;-86
2022/03/15 00:25:05;;;;;;;64.53;23.13;;;-0.20;1.00;;;;;;4355124;28;655826;-86
2022/03/15 00:27:53;;;;;;;75.20;24.97;;;-0.20;1.00;;;;;;4334775;28;655543;-86
2022/03/15 00:30:42;;;;;;;76.63;25.63;;;-0.20;1.00;;;;;;4357679;28;655437;-86
2022/03/15 00:33:30;;;;;;;90.10;28.73;;;-0.30;1.00;;;;;;4335080;28;656349;-87
2022/03/15 00:36:18;;;;;;;83.80;27.17;;;-0.30;1.00;;;;;;4326806;28;656155;-87
2022/03/15 00:39:06;;;;;;;107.07;33.30;;;-0.30;1.00;;;;;;4347288;28;656400;-87
2022/03/15 00:41:54;;;;;;;94.47;31.33;;;-0.40;1.00;;;;;;4343594;28;656755;-87
2022/03/15 00:44:41;;;;;;;90.22;28.70;;;-0.30;1.00;;;;;;4332214;28;656767;-86
2022/03/15 00:47:30;;;;;;;87.80;27.70;;;-0.30;1.00;;;;;;4352545;28;656380;-86
2022/03/15 00:50:18;;;;;;;98.57;27.93;;;-0.30;1.00;;;;;;4333884;28;655541;-85
2022/03/15 00:53:05;;;;;;;104.70;31.13;;;-0.40;1.00;;;;;;4356467;28;655574;-86
2022/03/15 00:55:53;;;;;;;149.40;40.97;;;-0.30;1.00;;;;;;4331738;28;656965;-86
2022/03/15 00:58:40;;;;;;;199.67;51.87;;;-0.30;1.00;;;;;;4350653;28;656639;-85
2022/03/15 01:01:27;;;;;;;163.40;43.77;;;-0.30;1.00;;;;;;4330634;28;656518;-86
2022/03/15 01:04:16;;;;;;;154.30;43.43;;;-0.30;1.00;;;;;;4355888;28;656173;-87
2022/03/15 01:07:04;;;;;;;136.47;38.80;;;-0.40;1.00;;;;;;4326211;28;657859;-86
2022/03/15 01:09:52;;;;;;;124.30;37.37;;;-0.40;1.00;;;;;;4329212;28;657856;-86
2022/03/15 01:12:39;;;;;;;108.97;29.60;;;-0.50;1.00;;;;;;4349432;28;657655;-86
2022/03/15 01:15:29;;;;;;;70.97;23.20;;;-0.50;1.00;;;;;;4330481;28;658204;-86
2022/03/15 01:18:17;;;;;;;60.73;21.67;;;-0.50;1.00;;;;;;4333222;28;656661;-86
2022/03/15 01:21:06;;;;;;;55.37;19.93;;;-0.50;1.00;;;;;;4356932;28;657276;-86
2022/03/15 01:23:54;;;;;;;50.43;19.03;;;-0.50;1.00;;;;;;4328752;28;656944;-86
2022/03/15 01:26:42;;;;;;;52.87;19.07;;;-0.50;1.00;;;;;;4332955;28;656852;-86
2022/03/15 01:29:30;;;;;;;46.58;17.20;;;-0.50;1.00;;;;;;4355354;28;657313;-86
2022/03/15 01:32:18;;;;;;;48.10;17.25;;;-0.60;1.00;;;;;;4333557;28;656289;-86
2022/03/15 01:35:07;;;;;;;53.13;16.80;;;-0.60;1.00;;;;;;4345898;28;657036;-86
2022/03/15 01:37:56;;;;;;;51.57;17.23;;;-0.60;1.00;;;;;;4334683;28;657715;-85
2022/03/15 01:40:43;;;;;;;44.05;16.88;;;-0.70;1.00;;;;;;4323921;28;657305;-85
2022/03/15 01:43:33;;;;;;;48.83;16.57;;;-0.60;1.00;;;;;;4346886;28;656426;-85
2022/03/15 01:46:21;;;;;;;41.55;15.95;;;-0.60;1.00;;;;;;4336376;28;656598;-85
2022/03/15 01:49:09;;;;;;;48.03;16.33;;;-0.70;1.00;;;;;;4348882;28;657266;-85
2022/03/15 01:51:57;;;;;;;45.77;17.20;;;-0.70;1.00;;;;;;4328934;28;657207;-85
2022/03/15 01:54:46;;;;;;;48.27;16.93;;;-0.70;1.00;;;;;;4339759;28;656907;-85
2022/03/15 01:57:34;;;;;;;51.27;16.80;;;-0.70;1.00;;;;;;4327916;28;657294;-86
2022/03/15 02:00:22;;;;;;;45.47;16.23;;;-0.70;1.00;;;;;;4330381;28;656713;-85
2022/03/15 02:03:09;;;;;;;44.10;16.50;;;-0.80;1.00;;;;;;4357384;28;657777;-85
2022/03/15 02:05:56;;;;;;;41.73;16.43;;;-0.80;1.00;;;;;;4338380;28;656836;-85
2022/03/15 02:08:44;;;;;;;45.53;16.37;;;-0.80;1.00;;;;;;4351503;28;657530;-85
2022/03/15 02:11:34;;;;;;;52.90;17.73;;;-0.90;1.00;;;;;;4335950;28;656633;-85
2022/03/15 02:14:21;;;;;;;44.90;16.90;;;-0.90;1.00;;;;;;4328818;28;656781;-85
2022/03/15 02:17:09;;;;;;;41.87;17.17;;;-0.90;1.00;;;;;;4354599;28;657105;-86
2022/03/15 02:19:56;;;;;;;50.77;16.70;;;-0.90;1.00;;;;;;4337152;28;656852;-85
2022/03/15 02:22:45;;;;;;;48.93;17.50;;;-0.90;1.00;;;;;;4350561;28;658185;-85
2022/03/15 02:25:33;;;;;;;46.63;17.00;;;-0.90;1.00;;;;;;4325191;28;657931;-86
2022/03/15 02:28:21;;;;;;;48.70;17.27;;;-0.90;1.00;;;;;;4348217;28;656994;-86
2022/03/15 02:31:08;;;;;;;48.33;16.80;;;-0.90;1.00;;;;;;4357114;28;657446;-85
2022/03/15 02:33:56;;;;;;;43.47;15.90;;;-0.90;1.00;;;;;;4329782;28;656424;-85
2022/03/15 02:36:44;;;;;;;47.83;17.37;;;-0.80;1.00;;;;;;4356587;28;656727;-86
2022/03/15 02:39:32;;;;;;;45.60;16.80;;;-0.80;1.00;;;;;;4334869;28;657240;-85
2022/03/15 02:42:20;;;;;;;46.53;16.90;;;-0.70;1.00;;;;;;4349557;28;656598;-86
2022/03/15 02:45:10;;;;;;;50.17;17.50;;;-0.60;1.00;;;;;;4329653;28;656822;-86
2022/03/15 02:47:57;;;;;;;50.53;19.30;;;-0.60;1.00;;;;;;4334577;28;656819;-85
2022/03/15 02:50:45;;;;;;;44.93;17.17;;;-0.60;1.00;;;;;;4355828;28;656437;-86
2022/03/15 02:53:32;;;;;;;42.20;16.30;;;-0.50;1.00;;;;;;4333789;28;657259;-85
2022/03/15 02:56:21;;;;;;;47.10;17.35;;;-0.50;1.00;;;;;;4350687;28;656703;-85
2022/03/15 02:59:09;;;;;;;44.00;16.70;;;-0.50;1.00;;;;;;4328793;28;656807;-86
2022/03/15 03:01:57;;;;;;;44.07;16.77;;;-0.50;1.00;;;;;;4328924;28;656522;-85
2022/03/15 03:04:44;;;;;;;46.08;16.30;;;-0.50;1.00;;;;;;4350894;28;656369;-85
2022/03/15 03:07:34;;;;;;;45.70;16.37;;;-0.50;1.00;;;;;;4334141;28;656305;-85
2022/03/15 03:10:22;;;;;;;48.00;17.17;;;-0.50;1.00;;;;;;4339358;28;656509;-85
2022/03/15 03:13:11;;;;;;;46.27;16.40;;;-0.50;1.00;;;;;;4333297;28;657379;-85
2022/03/15 03:16:00;;;;;;;46.93;16.90;;;-0.50;1.00;;;;;;4329307;28;657732;-85
2022/03/15 03:18:48;;;;;;;45.22;17.40;;;-0.50;1.00;;;;;;4334866;28;656555;-85
2022/03/15 03:21:36;;;;;;;47.13;18.43;;;-0.50;1.00;;;;;;4357546;28;656663;-86
2022/03/15 03:24:24;;;;;;;55.47;19.20;;;-0.60;1.00;;;;;;4332670;28;656577;-85
2022/03/15 03:27:13;;;;;;;50.33;17.97;;;-0.60;1.00;;;;;;4333835;28;656476;-85
2022/03/15 03:30:03;;;;;;;45.75;17.30;;;-0.70;1.00;;;;;;4326169;28;656724;-85
2022/03/15 03:32:50;;;;;;;52.50;17.33;;;-0.60;1.00;;;;;;4351089;28;656748;-85
2022/03/15 03:35:38;;;;;;;45.07;16.23;;;-0.70;1.00;;;;;;4325962;28;657825;-84
2022/03/15 03:38:26;;;;;;;46.77;17.23;;;-0.70;1.00;;;;;;4338075;28;656247;-85
2022/03/15 03:41:14;;;;;;;47.47;17.07;;;-0.60;1.00;;;;;;4359940;28;656615;-85
2022/03/15 03:44:01;;;;;;;40.13;15.75;;;-0.60;1.00;;;;;;4332942;28;656633;-84
2022/03/15 03:46:50;;;;;;;49.37;16.60;;;-0.60;1.00;;;;;;4351970;28;656927;-85
2022/03/15 03:49:38;;;;;;;46.10;16.70;;;-0.60;1.00;;;;;;4331113;28;657836;-85
2022/03/15 03:52:26;;;;;;;41.17;15.73;;;-0.70;1.00;;;;;;4357701;28;656390;-85
2022/03/15 03:55:13;;;;;;;35.92;14.63;;;-0.70;1.00;;;;;;4331973;28;656738;-84
2022/03/15 03:58:01;;;;;;;37.80;14.07;;;-0.70;1.00;;;;;;4348217;28;656553;-85
2022/03/15 04:00:49;;;;;;;38.67;14.27;;;-0.80;1.00;;;;;;4338858;28;656861;-84
2022/03/15 04:03:38;;;;;;;39.37;14.43;;;-0.90;1.00;;;;;;4314903;28;656765;-84
2022/03/15 04:06:26;;;;;;;36.70;14.27;;;-0.90;1.00;;;;;;4353522;28;656686;-85
2022/03/15 04:09:16;;;;;;;36.17;14.57;;;-0.90;1.00;;;;;;4360558;28;657253;-85
2022/03/15 04:12:05;;;;;;;37.10;13.83;;;-0.80;1.00;;;;;;4331909;28;657500;-85
2022/03/15 04:14:55;;;;;;;45.23;14.73;;;-0.80;1.00;;;;;;4331565;28;656951;-85
2022/03/15 04:17:43;;;;;;;36.50;14.43;;;-0.80;1.00;;;;;;4333090;28;657321;-85
2022/03/15 04:20:33;;;;;;;39.20;14.37;;;-0.90;1.00;;;;;;4363107;28;656249;-85
2022/03/15 04:23:20;;;;;;;38.67;14.10;;;-0.90;1.00;;;;;;4339100;28;656252;-85
2022/03/15 04:26:08;;;;;;;37.93;14.97;;;-0.90;1.00;;;;;;4309674;28;657711;-83
2022/03/15 04:28:57;;;;;;;39.67;14.87;;;-1.00;1.00;;;;;;4338017;28;656518;-86
2022/03/15 04:31:44;;;;;;;40.13;14.60;;;-1.00;1.00;;;;;;4321169;28;656858;-85
2022/03/15 04:34:32;;;;;;;41.15;15.65;;;-1.10;1.00;;;;;;4316276;28;656801;-86
2022/03/15 04:37:23;;;;;;;36.13;14.20;;;-1.10;1.00;;;;;;4332628;28;656969;-85
2022/03/15 04:40:12;;;;;;;38.03;15.17;;;-1.10;1.00;;;;;;4334491;28;656346;-85
2022/03/15 04:43:01;;;;;;;38.33;14.60;;;-1.10;1.00;;;;;;4336852;28;656653;-85
2022/03/15 04:45:50;;;;;;;39.90;14.20;;;-1.20;1.00;;;;;;4316899;28;657025;-85
2022/03/15 04:48:38;;;;;;;32.80;13.63;;;-1.10;1.00;;;;;;4321001;28;658170;-85
2022/03/15 04:51:26;;;;;;;35.50;14.53;;;-1.10;1.00;;;;;;4322773;28;656642;-85
2022/03/15 04:54:15;;;;;;;38.50;15.13;;;-1.20;1.00;;;;;;4332000;28;657209;-85
2022/03/15 04:57:03;;;;;;;39.10;15.20;;;-1.10;1.00;;;;;;4306084;28;657164;-85
2022/03/15 04:59:51;;;;;;;36.30;14.33;;;-1.10;1.00;;;;;;4318336;28;656671;-85
2022/03/15 05:02:40;;;;;;;43.80;16.23;;;-1.10;1.00;;;;;;4339614;28;657935;-85
2022/03/15 05:05:27;;;;;;;41.87;17.53;;;-1.10;1.00;;;;;;4326114;28;656289;-86
2022/03/15 05:08:15;;;;;;;63.90;26.33;;;-1.00;1.00;;;;;;4343015;28;656836;-85
2022/03/15 05:11:07;;;;;;;62.33;24.60;;;-1.00;1.00;;;;;;4313993;28;657113;-85
2022/03/15 05:13:54;;;;;;;69.87;24.53;;;-1.00;1.00;;;;;;4313366;28;656600;-85
2022/03/15 05:16:42;;;;;;;55.27;21.27;;;-1.00;1.00;;;;;;4322498;28;657266;-85
2022/03/15 05:19:30;;;;;;;52.03;21.70;;;-1.00;1.00;;;;;;4339390;28;656699;-85
2022/03/15 05:22:18;;;;;;;53.03;18.90;;;-1.00;1.00;;;;;;4316423;28;657442;-85
2022/03/15 05:25:06;;;;;;;49.60;19.23;;;-1.00;1.00;;;;;;4339311;28;657013;-85
2022/03/15 05:27:55;;;;;;;52.40;20.27;;;-0.80;1.00;;;;;;4313853;28;657403;-85
2022/03/15 05:30:43;;;;;;;48.00;18.83;;;-0.80;1.00;;;;;;4321090;28;656910;-85
2022/03/15 05:33:30;;;;;;;50.33;19.17;;;-0.70;1.00;;;;;;4339234;28;656683;-85
2022/03/15 05:36:19;;;;;;;62.23;22.40;;;-0.70;1.00;;;;;;4317369;28;657347;-85
2022/03/15 05:39:06;;;;;;;126.00;47.30;;;-0.70;1.00;;;;;;4322802;28;656592;-85
2022/03/15 05:41:54;;;;;;;145.10;48.97;;;-0.60;1.00;;;;;;4336438;28;658218;-86
2022/03/15 05:44:43;;;;;;;52.57;20.60;;;-0.50;1.00;;;;;;4317131;28;657539;-85
2022/03/15 05:47:31;;;;;;;114.57;40.80;;;-0.30;1.00;;;;;;4331532;28;656249;-85
2022/03/15 05:50:20;;;;;;;70.70;26.70;;;-0.20;1.00;;;;;;4327578;28;658480;-85
2022/03/15 05:53:07;;;;;;;59.63;24.48;;;0.00;1.00;;;;;;4323486;28;656624;-86
2022/03/15 05:55:55;;;;;;;57.20;22.47;;;0.20;1.00;;;;;;4341313;28;655657;-86
2022/03/15 05:58:43;;;;;;;55.87;21.93;;;0.30;1.00;;;;;;4318770;28;655680;-86
2022/03/15 06:01:33;;;;;;;43.83;16.77;;;0.50;1.00;;;;;;4327926;28;655830;-86
2022/03/15 06:04:26;;;;;;;35.10;13.88;;;0.70;1.00;;;;;;4334775;28;655460;-85
2022/03/15 06:07:14;;;;;;;32.47;14.13;;;0.90;1.00;;;;;;4316336;28;656004;-85
2022/03/15 06:10:02;;;;;;;36.17;13.07;;;1.10;1.00;;;;;;4320981;28;655422;-86
2022/03/15 06:12:49;;;;;;;39.15;13.25;;;1.40;1.00;;;;;;4340739;28;656644;-86
2022/03/15 06:15:37;;;;;;;35.10;13.10;;;1.70;1.00;;;;;;4317601;28;655801;-87
2022/03/15 06:18:26;;;;;;;32.87;14.23;;;1.90;1.00;;;;;;4334967;28;655488;-88
2022/03/15 06:21:14;;;;;;;34.33;12.90;;;2.30;1.00;;;;;;4320281;28;656285;-87
2022/03/15 06:24:02;;;;;;;29.50;12.97;;;2.70;1.00;;;;;;4312865;28;655697;-88
2022/03/15 06:26:50;;;;;;;31.80;13.37;;;3.00;1.00;;;;;;4341105;28;655225;-88
2022/03/15 06:29:38;;;;;;;32.50;12.57;;;3.40;1.00;;;;;;4325259;28;655898;-87
2022/03/15 06:32:26;;;;;;;30.80;12.60;;;3.80;1.00;;;;;;4348991;28;655595;-87
2022/03/15 06:35:15;;;;;;;28.83;13.05;;;4.30;1.00;;;;;;4333824;28;656218;-87
2022/03/15 06:38:02;;;;;;;30.47;13.10;;;4.70;1.00;;;;;;4337447;28;656123;-87
2022/03/15 06:40:51;;;;;;;30.73;13.70;;;5.00;1.00;;;;;;4355472;28;655820;-87
2022/03/15 06:43:40;;;;;;;31.47;12.40;;;5.20;1.00;;;;;;4325442;28;655830;-87
2022/03/15 06:46:27;;;;;;;34.33;13.20;;;5.30;1.00;;;;;;4327019;28;655875;-87
2022/03/15 06:49:15;;;;;;;30.30;12.73;;;5.50;1.00;;;;;;4360620;28;655789;-87
2022/03/15 06:52:04;;;;;;;29.40;12.70;;;5.60;1.00;;;;;;4330474;28;657098;-87
2022/03/15 06:54:52;;;;;;;29.00;12.50;;;5.70;1.00;;;;;;4328607;28;655516;-87
2022/03/15 06:57:40;;;;;;;29.92;12.63;;;5.90;1.00;;;;;;4353215;28;655805;-87
2022/03/15 07:00:27;;;;;;;30.30;13.13;;;6.10;1.00;;;;;;4329794;28;655609;-88
2022/03/15 07:03:15;;;;;;;32.23;12.87;;;6.20;1.00;;;;;;4350873;28;655985;-87
2022/03/15 07:06:02;;;;;;;30.07;13.07;;;6.30;1.00;;;;;;4323111;28;656186;-88
2022/03/15 07:08:52;;;;;;;32.60;13.03;;;6.40;1.00;;;;;;4347301;28;655866;-88
2022/03/15 07:11:40;;;;;;;28.23;13.83;;;6.60;1.00;;;;;;4339696;28;655720;-88
2022/03/15 07:14:27;;;;;;;30.57;13.00;;;6.70;1.00;;;;;;4330215;28;655478;-88
2022/03/15 07:17:15;;;;;;;30.33;13.10;;;6.80;1.00;;;;;;4351458;28;655472;-87
2022/03/15 07:20:03;;;;;;;25.93;10.80;;;7.00;1.00;;;;;;4328391;28;655530;-87
2022/03/15 07:22:51;;;;;;;35.63;13.37;;;7.10;1.00;;;;;;4345381;28;656134;-87
2022/03/15 07:25:40;;;;;;;32.87;13.70;;;7.30;1.00;;;;;;4354248;28;655683;-86
2022/03/15 07:28:28;;;;;;;30.40;13.53;;;7.50;1.00;;;;;;4331904;28;656009;-87
2022/03/15 07:31:15;;;;;;;30.53;14.23;;;7.60;1.00;;;;;;4351720;28;655568;-86
2022/03/15 07:34:03;;;;;;;36.90;14.43;;;7.80;1.00;;;;;;4332028;28;656845;-86
2022/03/15 07:36:51;;;;;;;32.40;13.70;;;7.80;1.00;;;;;;4358120;28;656103;-86
2022/03/15 07:39:39;;;;;;;33.70;14.37;;;8.00;1.00;;;;;;4355157;28;656078;-86
2022/03/15 07:42:28;;;;;;;30.80;14.23;;;8.20;1.00;;;;;;4331030;28;655405;-86
2022/03/15 07:45:16;;;;;;;32.37;13.80;;;8.30;1.00;;;;;;4353828;28;655600;-86
2022/03/15 07:48:05;;;;;;;41.63;14.73;;;8.40;1.00;;;;;;4358046;28;656246;-87
2022/03/15 07:50:53;;;;;;;30.07;12.87;;;8.60;1.00;;;;;;4334528;28;655627;-86
2022/03/15 07:53:41;;;;;;;30.93;14.30;;;8.70;1.00;;;;;;4348669;28;655470;-87
2022/03/15 07:56:29;;;;;;;32.07;14.47;;;8.70;1.00;;;;;;4352692;28;656132;-86
2022/03/15 07:59:17;;;;;;;27.73;11.93;;;8.80;1.00;;;;;;4331850;28;655458;-87
2022/03/15 08:02:05;;;;;;;33.37;13.90;;;8.90;1.00;;;;;;4359098;28;655421;-87
2022/03/15 08:04:55;;;;;;;33.20;15.00;;;9.00;1.00;;;;;;4335416;28;656299;-87
2022/03/15 08:07:42;;;;;;;29.77;11.80;;;9.20;1.00;;;;;;4333371;28;655561;-87
2022/03/15 08:10:30;;;;;;;42.77;16.30;;;9.40;1.00;;;;;;4352159;28;655523;-86
2022/03/15 08:13:18;;;;;;;31.17;14.23;;;9.60;1.00;;;;;;4333332;28;656302;-87
2022/03/15 08:16:09;;;;;;;33.10;14.33;;;9.90;1.00;;;;;;4345111;28;655479;-87
2022/03/15 08:18:56;;;;;;;30.87;13.13;;;10.10;1.00;;;;;;4328692;28;655987;-87
2022/03/15 08:21:44;;;;;;;29.40;11.40;;;10.20;1.00;;;;;;4355548;28;656978;-87
2022/03/15 08:24:32;;;;;;;21.73;10.77;;;10.20;1.00;;;;;;4335935;28;657147;-87
2022/03/15 08:27:19;;;;;;;24.53;11.53;;;10.30;1.00;;;;;;4359546;28;657502;-87
2022/03/15 08:30:09;;;;;;;24.33;12.70;;;10.30;1.00;;;;;;4335135;28;657322;-87
2022/03/15 08:32:58;;;;;;;27.17;12.07;;;10.50;1.00;;;;;;4340351;28;656689;-87
2022/03/15 08:35:46;;;;;;;23.75;12.05;;;10.60;1.00;;;;;;4331851;28;656555;-87
2022/03/15 08:38:34;;;;;;;26.27;11.77;;;10.70;1.00;;;;;;4356037;28;656856;-87
2022/03/15 08:41:22;;;;;;;17.60;8.87;;;10.80;1.00;;;;;;4329883;28;656996;-87
2022/03/15 08:44:10;;;;;;;33.47;14.90;;;10.70;1.00;;;;;;4354001;28;656336;-87
2022/03/15 08:46:57;;;;;;;29.48;13.60;;;10.80;1.00;;;;;;4324812;28;656880;-87
2022/03/15 08:49:46;;;;;;;20.63;10.03;;;10.80;1.00;;;;;;4353742;28;657151;-87
2022/03/15 08:52:34;;;;;;;19.60;9.13;;;10.80;1.00;;;;;;4331889;28;657068;-87
2022/03/15 08:55:22;;;;;;;22.83;11.17;;;10.70;1.00;;;;;;4324000;28;655191;-87
2022/03/15 08:58:10;;;;;;;26.47;11.70;;;10.90;1.00;;;;;;4350950;28;656701;-87
2022/03/15 09:00:59;;;;;;;22.40;11.43;;;11.00;1.00;;;;;;4334388;28;656943;-87
2022/03/15 09:03:46;;;;;;;23.93;10.40;;;11.40;1.00;;;;;;4328812;28;656602;-87
2022/03/15 09:06:35;;;;;;;12.67;5.47;;;11.60;1.00;;;;;;4350132;28;656848;-87
2022/03/15 09:09:25;;;;;;;26.57;12.73;;;11.70;1.00;;;;;;4327594;28;655982;-87
2022/03/15 09:12:13;;;;;;;21.70;10.03;;;11.70;1.00;;;;;;4326680;28;656583;-88
2022/03/15 09:15:00;;;;;;;15.80;6.97;;;12.00;1.00;;;;;;4351928;28;656650;-88
2022/03/15 09:17:48;;;;;;;19.73;10.17;;;12.10;1.00;;;;;;4340820;28;656204;-88
2022/03/15 09:20:35;;;;;;;13.40;6.13;;;12.10;1.00;;;;;;4347035;28;656186;-87
2022/03/15 09:23:24;;;;;;;16.23;7.67;;;12.10;1.00;;;;;;4322327;28;657026;-88
2022/03/15 09:26:12;;;;;;;11.90;5.93;;;12.10;1.00;;;;;;4324760;28;655962;-88
2022/03/15 09:29:02;;;;;;;18.33;7.57;;;12.40;1.00;;;;;;4345734;28;655977;-88
2022/03/15 09:31:50;;;;;;;20.97;9.63;;;12.20;1.00;;;;;;4326381;28;656218;-88
2022/03/15 09:34:37;;;;;;;27.17;11.30;;;12.50;1.00;;;;;;4324294;28;655479;-88
2022/03/15 09:37:25;;;;;;;21.50;10.43;;;12.40;1.00;;;;;;4347444;28;656366;-89
2022/03/15 09:40:14;;;;;;;21.90;10.70;;;12.70;1.00;;;;;;4332033;28;656622;-90
2022/03/15 09:43:03;;;;;;;19.00;10.67;;;13.10;1.00;;;;;;4307901;28;656672;-90
2022/03/15 09:45:51;;;;;;;23.40;10.80;;;13.10;1.00;;;;;;4360237;28;656519;-89
2022/03/15 09:48:39;;;;;;;19.27;10.77;;;13.00;1.00;;;;;;4336149;28;657072;-90
2022/03/15 09:51:27;;;;;;;22.90;11.37;;;13.20;1.00;;;;;;4328925;28;656285;-90
2022/03/15 09:54:17;;;;;;;22.27;10.67;;;13.60;1.00;;;;;;4335718;28;656753;-89
2022/03/15 09:57:07;;;;;;;22.17;11.70;;;13.50;1.00;;;;;;4323241;28;657010;-91
2022/03/15 09:59:54;;;;;;;20.60;11.83;;;13.60;1.00;;;;;;4326473;28;657382;-89
2022/03/15 10:02:42;;;;;;;19.73;9.67;;;13.80;1.00;;;;;;4300961;28;656657;-91
2022/03/15 10:05:30;;;;;;;21.47;11.03;;;14.20;1.00;;;;;;4353910;28;655959;-91
2022/03/15 10:08:18;;;;;;;20.37;10.80;;;14.40;1.00;;;;;;4317636;28;656838;-90
2022/03/15 10:11:06;;;;;;;17.90;8.40;;;14.00;1.00;;;;;;4355638;28;656703;-90
2022/03/15 10:13:55;;;;;;;19.97;8.87;;;13.80;1.00;;;;;;4337587;28;655817;-89
2022/03/15 10:16:45;;;;;;;23.20;10.37;;;13.90;1.00;;;;;;4330841;28;656086;-90
2022/03/15 10:19:33;;;;;;;14.33;7.77;;;14.00;1.00;;;;;;4326973;28;658144;-90
2022/03/15 10:22:21;;;;;;;23.20;10.43;;;13.90;1.00;;;;;;4360563;28;655323;-90
2022/03/15 10:25:09;;;;;;;34.03;10.80;;;13.80;1.00;;;;;;4330009;28;657062;-90
2022/03/15 10:28:00;;;;;;;17.23;9.47;;;14.00;1.00;;;;;;4330549;28;657228;-91
2022/03/15 10:30:51;;;;;;;21.17;10.63;;;14.00;1.00;;;;;;4341931;28;655668;-90
2022/03/15 10:33:38;;;;;;;20.87;10.87;;;14.40;1.00;;;;;;4334883;28;657320;-92
2022/03/15 10:36:26;;;;;;;19.77;9.90;;;14.60;1.00;;;;;;4337050;28;656550;-91
2022/03/15 10:39:17;;;;;;;18.67;10.43;;;14.90;1.00;;;;;;4358008;28;656635;-91
2022/03/15 10:42:07;;;;;;;17.83;10.40;;;15.10;1.00;;;;;;4330156;28;656262;-91
2022/03/15 10:44:57;;;;;;;20.13;10.80;;;15.70;1.00;;;;;;4334077;28;656368;-91
2022/03/15 10:47:53;;;;;;;22.00;10.63;;;15.80;1.00;;;;;;4340378;28;656975;-90
2022/03/15 10:50:51;;;;;;;20.10;9.83;;;15.60;1.00;;;;;;4297752;28;656536;-90
2022/03/15 10:53:39;;;;;;;17.73;10.30;;;15.80;1.00;;;;;;4333647;28;655970;-90
2022/03/15 10:56:27;;;;;;;20.13;10.53;;;15.20;1.00;;;;;;4334376;28;656795;-90
2022/03/15 10:59:15;;;;;;;23.87;10.80;;;15.20;1.00;;;;;;4338955;28;657376;-91
2022/03/15 11:02:03;;;;;;;13.90;5.03;;;15.50;1.00;;;;;;4315245;28;657350;-92
2022/03/15 11:04:53;;;;;;;18.02;10.75;;;15.60;1.00;;;;;;4339038;28;655722;-90
2022/03/15 11:07:41;;;;;;;18.97;9.80;;;15.40;1.00;;;;;;4360780;28;656683;-90
2022/03/15 11:10:29;;;;;;;23.43;11.83;;;15.30;1.00;;;;;;4337371;28;656808;-91
2022/03/15 11:13:17;;;;;;;22.60;11.87;;;15.40;1.00;;;;;;4321548;28;656790;-90
2022/03/15 11:16:06;;;;;;;23.07;11.33;;;15.50;1.00;;;;;;4358917;28;657295;-91
2022/03/15 11:18:54;;;;;;;22.87;12.03;;;15.60;1.00;;;;;;4329912;28;657097;-91
2022/03/15 11:21:44;;;;;;;26.93;12.73;;;15.90;1.00;;;;;;4337215;28;656836;-91
2022/03/15 11:24:31;;;;;;;30.33;12.90;;;15.70;1.00;;;;;;4327406;28;657061;-91
2022/03/15 11:27:21;;;;;;;20.97;11.87;;;15.70;1.00;;;;;;4348538;28;656593;-90
2022/03/15 11:30:10;;;;;;;22.03;12.67;;;15.70;1.00;;;;;;4325569;28;657179;-90
2022/03/15 11:32:58;;;;;;;28.30;13.87;;;16.00;1.00;;;;;;4329086;28;656452;-90
2022/03/15 11:35:47;;;;;;;24.70;14.13;;;16.00;1.00;;;;;;4353844;28;656205;-90
2022/03/15 11:38:36;;;;;;;25.80;11.77;;;16.50;1.00;;;;;;4348679;28;656586;-89
2022/03/15 11:41:24;;;;;;;28.27;15.93;;;16.40;1.00;;;;;;4334692;28;657458;-90
2022/03/15 11:44:15;;;;;;;28.13;14.23;;;16.30;1.00;;;;;;4334661;28;656476;-90
2022/03/15 11:47:06;;;;;;;25.93;13.50;;;16.50;1.00;;;;;;4331371;28;656949;-89
2022/03/15 11:49:59;;;;;;;18.77;11.03;;;16.80;1.00;;;;;;4332910;28;656583;-90
2022/03/15 11:52:54;;;;;;;23.53;11.57;;;17.20;1.00;;;;;;4329938;28;656953;-89
2022/03/15 11:55:49;;;;;;;21.30;10.00;;;16.80;1.00;;;;;;4334762;28;656658;-89
2022/03/15 11:58:37;;;;;;;27.80;12.53;;;16.20;1.00;;;;;;4336067;28;656594;-89
2022/03/15 12:01:25;;;;;;;22.47;13.17;;;16.30;1.00;;;;;;4337216;28;656789;-89
2022/03/15 12:04:13;;;;;;;25.13;12.87;;;16.70;1.00;;;;;;4334696;28;657041;-89
2022/03/15 12:07:01;;;;;;;24.13;12.83;;;17.30;1.00;;;;;;4341728;28;656550;-90
2022/03/15 12:09:49;;;;;;;20.33;11.10;;;17.70;1.00;;;;;;4336333;28;656999;-91
2022/03/15 12:12:40;;;;;;;25.90;14.27;;;17.90;1.00;;;;;;4331740;28;656341;-89
2022/03/15 12:15:35;;;;;;;24.57;13.17;;;18.00;1.00;;;;;;4328866;28;657540;-89
2022/03/15 12:18:27;;;;;;;23.20;12.00;;;18.30;1.00;;;;;;4323877;28;656855;-90
2022/03/15 12:21:16;;;;;;;25.53;12.83;;;17.90;1.00;;;;;;4323591;28;656696;-89
2022/03/15 12:24:04;;;;;;;25.97;12.30;;;17.60;1.00;;;;;;4323568;28;657087;-90
2022/03/15 12:27:01;;;;;;;23.33;11.97;;;17.60;1.00;;;;;;4327081;28;656589;-90
2022/03/15 12:29:53;;;;;;;20.03;10.73;;;17.30;1.00;;;;;;4541035;28;657172;-90
2022/03/15 12:32:50;;;;;;;20.00;10.53;;;17.50;1.00;;;;;;4402042;28;655979;-90
2022/03/15 12:35:38;;;;;;;18.23;10.53;;;17.10;1.00;;;;;;4319051;28;656775;-89
2022/03/15 12:38:33;;;;;;;18.77;10.77;;;17.30;1.00;;;;;;4354781;28;657086;-88
2022/03/15 12:41:26;;;;;;;20.33;10.70;;;17.50;1.00;;;;;;4290556;28;657004;-89
2022/03/15 12:44:14;;;;;;;18.83;10.32;;;17.20;1.00;;;;;;4323347;28;656258;-89
2022/03/15 12:47:03;;;;;;;18.30;10.73;;;17.90;1.00;;;;;;4331869;28;656417;-89
2022/03/15 12:50:08;;;;;;;17.27;10.60;;;17.70;1.00;;;;;;4336412;28;656588;-89
2022/03/15 12:52:57;;;;;;;20.87;11.70;;;17.40;1.00;;;;;;4317392;28;657391;-89
2022/03/15 12:55:45;;;;;;;20.70;9.77;;;17.60;1.00;;;;;;4351507;28;656384;-89
2022/03/15 12:58:34;;;;;;;16.80;9.03;;;17.80;1.00;;;;;;4341512;28;655976;-89
2022/03/15 13:01:21;;;;;;;19.33;9.57;;;17.90;1.00;;;;;;4331264;28;655536;-89
2022/03/15 13:04:10;;;;;;;20.73;11.40;;;17.60;1.00;;;;;;4353252;28;656297;-89
2022/03/15 13:07:03;;;;;;;22.93;11.00;;;17.40;1.00;;;;;;4335936;28;657514;-89
2022/03/15 13:09:58;;;;;;;22.57;11.90;;;17.90;1.00;;;;;;4344206;28;656516;-88
2022/03/15 13:12:45;;;;;;;23.00;11.67;;;18.50;1.00;;;;;;4333263;28;656157;-89
2022/03/15 13:15:33;;;;;;;19.03;11.33;;;18.60;1.00;;;;;;4331466;28;657337;-89
2022/03/15 13:18:21;;;;;;;19.10;11.07;;;18.80;1.00;;;;;;4354342;28;656334;-89
2022/03/15 13:21:12;;;;;;;18.47;9.53;;;18.80;1.00;;;;;;4329688;28;657562;-89
2022/03/15 13:24:08;;;;;;;20.73;10.07;;;18.60;1.00;;;;;;4333376;28;655485;-90
2022/03/15 13:26:57;;;;;;;17.00;9.90;;;18.40;1.00;;;;;;4350985;28;656699;-89
2022/03/15 13:29:45;;;;;;;22.53;10.90;;;18.00;1.00;;;;;;4341987;28;655621;-89
2022/03/15 13:32:34;;;;;;;20.30;10.50;;;18.10;1.00;;;;;;4332757;28;656689;-88
2022/03/15 13:35:23;;;;;;;21.30;9.43;;;17.40;1.00;;;;;;4336617;28;656615;-89
2022/03/15 13:38:16;;;;;;;19.77;10.87;;;17.10;1.00;;;;;;4338756;28;655572;-89
2022/03/15 13:41:05;;;;;;;17.63;8.53;;;16.60;1.00;;;;;;4329776;28;656818;-89
2022/03/15 13:43:53;;;;;;;20.63;10.73;;;16.30;1.00;;;;;;4334525;28;656814;-89
2022/03/15 13:46:40;;;;;;;21.17;9.60;;;16.40;1.00;;;;;;4358451;28;656517;-89
2022/03/15 13:49:28;;;;;;;20.40;10.77;;;16.40;1.00;;;;;;4328699;28;656684;-89
2022/03/15 13:52:17;;;;;;;19.77;11.60;;;16.30;1.00;;;;;;4339752;28;656861;-89
2022/03/15 13:55:10;;;;;;;18.73;10.50;;;16.70;1.00;;;;;;4353960;28;657036;-89
2022/03/15 13:57:57;;;;;;;19.33;11.37;;;16.50;1.00;;;;;;4327135;28;657036;-89
2022/03/15 14:00:46;;;;;;;22.17;11.50;;;16.50;1.00;;;;;;4359043;28;656937;-88
2022/03/15 14:03:34;;;;;;;20.57;11.10;;;16.80;1.00;;;;;;4336722;28;656887;-89
2022/03/15 14:06:23;;;;;;;17.53;10.47;;;17.10;1.00;;;;;;4334726;28;657253;-89
2022/03/15 14:09:11;;;;;;;22.23;10.87;;;17.30;1.00;;;;;;4351762;28;657005;-89
2022/03/15 14:12:08;;;;;;;20.30;9.97;;;17.50;1.00;;;;;;4331373;28;657591;-88
2022/03/15 14:14:57;;;;;;;21.77;11.47;;;17.00;1.00;;;;;;4334686;28;655348;-87
2022/03/15 14:17:47;;;;;;;20.80;10.53;;;17.00;1.00;;;;;;4338575;28;656590;-88